KEGI/EGI METAR and TAF weather

Enter ICAO airport designator
Station Type Date Time Source
KEGI METAR 2018/10/21 03:56 UTC NOAA

KEGI 210356Z AUTO 35011KT 10SM CLR 20/17 A3009 RMK AO2 SLP189 T01960166 $


Station Type Date Time Source
KEGI Decoded METAR 2018/10/21 03:56 UTC NOAA

Duke Field / Eglin Auxiliary, FL, United States (KEGI) 30-39N 086-31W
Oct 20, 2018 - 11:56 PM EDT / 2018.10.21 0356 UTC
Wind: from the N (350 degrees) at 13 MPH (11 KT):0
Visibility: 10 mile(s):0
Sky conditions: clear
Temperature: 67.3 F (19.6 C)
Dew Point: 61.9 F (16.6 C)
Relative Humidity: 82%
Pressure (altimeter): 30.09 in. Hg (1018 hPa)
ob: KEGI 210356Z AUTO 35011KT 10SM CLR 20/17 A3009 RMK AO2 SLP189 T01960166
cycle: 4

Station Type Date Time Source
KEGI TAF 2018/10/21 01:08 UTC NOAA

TAF COR KEGI 210105Z 2101/2207 35010KT 9999 SCT040 SCT090 QNH3003INS
BECMG 2111/2112 03012G18KT 9999 FEW250 QNH3016INS
BECMG 2200/2201 04008KT 9999 SKC QNH3019INS TX22/2101Z TN15/2112Z LAST NO
AMDS AFT 2103 NEXT 2213


Example: see airport list